Time;durP1;ratioP1;P1;durP2;ratioP2;P2;SDS_P1;SDS_P2;PMS_P1;PMS_P2;Temp;Humidity;BMP_temperature;BMP_pressure;BME280_temperature;BME280_humidity;BME280_pressure;Samples;Min_cycle;Max_cycle;Signal;HPM_P1;HPM_P2
2023/03/11 00:00:25;;;;;;;13.67;8.43;;;15.00;90.70;;;;;;6063214;23;20440;-73
2023/03/11 00:02:55;;;;;;;13.60;8.63;;;14.90;90.70;;;;;;6061327;23;20597;-73
2023/03/11 00:05:25;;;;;;;11.67;7.70;;;14.90;90.70;;;;;;6064134;23;20175;-73
2023/03/11 00:07:54;;;;;;;12.63;7.70;;;15.00;90.70;;;;;;6064299;23;20194;-73
2023/03/11 00:10:26;;;;;;;11.67;7.63;;;15.00;90.70;;;;;;6063016;23;20253;-74
2023/03/11 00:12:57;;;;;;;17.87;7.73;;;14.90;90.80;;;;;;6066541;23;20196;-74
2023/03/11 00:15:26;;;;;;;13.37;7.53;;;14.90;90.90;;;;;;6063518;23;20250;-74
2023/03/11 00:17:54;;;;;;;15.63;8.23;;;14.90;90.90;;;;;;6064307;23;20230;-73
2023/03/11 00:20:24;;;;;;;13.43;8.37;;;14.90;90.90;;;;;;6063660;23;20230;-73
2023/03/11 00:22:53;;;;;;;11.33;7.33;;;14.90;91.00;;;;;;6064800;23;20178;-73
2023/03/11 00:25:24;;;;;;;12.47;7.83;;;14.90;91.00;;;;;;6065354;23;20174;-73
2023/03/11 00:27:53;;;;;;;16.23;9.57;;;14.90;91.00;;;;;;6063280;23;20189;-73
2023/03/11 00:30:22;;;;;;;18.90;10.10;;;14.90;91.40;;;;;;6063093;23;20226;-73
2023/03/11 00:32:53;;;;;;;15.50;11.03;;;14.90;91.10;;;;;;6064857;23;20198;-73
2023/03/11 00:35:23;;;;;;;17.87;9.27;;;14.90;91.60;;;;;;6064864;23;20162;-73
2023/03/11 00:37:54;;;;;;;16.73;9.50;;;14.80;91.60;;;;;;6063798;23;20163;-74
2023/03/11 00:40:25;;;;;;;14.13;8.43;;;14.80;91.70;;;;;;6064943;23;20246;-74
2023/03/11 00:42:53;;;;;;;14.23;8.83;;;14.80;91.90;;;;;;6064215;23;20223;-73
2023/03/11 00:45:22;;;;;;;15.27;8.57;;;14.80;91.80;;;;;;6064865;23;20175;-74
2023/03/11 00:47:50;;;;;;;12.37;8.77;;;14.80;91.90;;;;;;6062528;23;20182;-74
2023/03/11 00:50:21;;;;;;;18.23;10.43;;;14.80;91.80;;;;;;6064700;23;20255;-73
2023/03/11 00:52:51;;;;;;;17.70;9.70;;;14.80;91.80;;;;;;6065698;23;20190;-73
2023/03/11 00:55:22;;;;;;;14.60;9.40;;;14.90;91.90;;;;;;6063660;23;20545;-73
2023/03/11 00:57:53;;;;;;;16.97;10.53;;;14.90;92.10;;;;;;6062313;23;20226;-73
2023/03/11 01:00:23;;;;;;;15.23;10.13;;;14.90;92.20;;;;;;6063638;23;20499;-73
2023/03/11 01:02:53;;;;;;;17.63;10.17;;;14.90;92.30;;;;;;6064251;23;20175;-73
2023/03/11 01:05:23;;;;;;;17.83;9.67;;;14.90;92.50;;;;;;6064185;23;20174;-73
2023/03/11 01:07:51;;;;;;;16.83;10.10;;;14.90;92.30;;;;;;6062612;23;20178;-73
2023/03/11 01:10:20;;;;;;;17.00;10.60;;;14.90;92.70;;;;;;6062674;23;20175;-72
2023/03/11 01:12:49;;;;;;;16.10;9.90;;;14.90;92.90;;;;;;6064586;23;20620;-73
2023/03/11 01:15:23;;;;;;;15.60;9.23;;;14.90;93.10;;;;;;6062841;23;20175;-73
2023/03/11 01:17:51;;;;;;;20.13;10.07;;;14.80;93.10;;;;;;6061554;23;20166;-73
2023/03/11 01:20:19;;;;;;;19.57;9.33;;;14.90;93.10;;;;;;6059516;23;20257;-73
2023/03/11 01:22:48;;;;;;;14.83;9.20;;;14.90;93.10;;;;;;6064375;23;20202;-73
2023/03/11 01:25:18;;;;;;;14.73;8.97;;;14.80;93.10;;;;;;6061192;23;20185;-73
2023/03/11 01:27:46;;;;;;;18.47;9.57;;;14.80;93.20;;;;;;6062418;23;20159;-74
2023/03/11 01:30:18;;;;;;;17.17;9.33;;;14.80;93.20;;;;;;6062248;23;20175;-73
2023/03/11 01:32:48;;;;;;;15.60;8.93;;;14.80;93.20;;;;;;6059860;23;20269;-73
2023/03/11 01:35:18;;;;;;;16.93;9.70;;;14.90;93.20;;;;;;6061608;23;20182;-73
2023/03/11 01:37:47;;;;;;;15.17;8.87;;;14.80;93.30;;;;;;6062320;23;20170;-73
2023/03/11 01:40:19;;;;;;;16.20;9.60;;;14.80;93.10;;;;;;6061470;23;20174;-73
2023/03/11 01:42:47;;;;;;;17.70;9.57;;;14.80;93.20;;;;;;6061628;23;20514;-73
2023/03/11 01:45:34;;;;;;;14.13;8.63;;;14.80;93.20;;;;;;6063594;23;20170;-73
2023/03/11 01:48:03;;;;;;;14.87;8.67;;;14.80;93.10;;;;;;6061192;23;20163;-73
2023/03/11 01:50:36;;;;;;;17.53;9.33;;;14.80;93.10;;;;;;6062728;23;20178;-73
2023/03/11 01:53:05;;;;;;;16.07;10.13;;;14.80;93.00;;;;;;6060808;23;20659;-75
2023/03/11 01:55:34;;;;;;;15.83;9.33;;;14.80;93.20;;;;;;6064267;23;20798;-73
2023/03/11 01:58:06;;;;;;;14.53;8.90;;;14.80;93.20;;;;;;6061766;23;20206;-73
2023/03/11 02:00:35;;;;;;;14.97;9.70;;;14.80;93.10;;;;;;6063257;23;20195;-73
2023/03/11 02:03:09;;;;;;;15.03;9.20;;;14.90;93.20;;;;;;6060407;23;20245;-73
2023/03/11 02:05:39;;;;;;;19.37;9.83;;;14.90;93.30;;;;;;6063824;23;20220;-73
2023/03/11 02:08:08;;;;;;;17.50;10.30;;;15.00;93.30;;;;;;6062063;23;20553;-72
2023/03/11 02:10:38;;;;;;;17.40;10.70;;;15.00;93.20;;;;;;6063407;23;20234;-72
2023/03/11 02:13:07;;;;;;;17.97;10.10;;;15.00;93.10;;;;;;6060637;23;20307;-74
2023/03/11 02:15:36;;;;;;;20.63;10.40;;;15.00;93.10;;;;;;6061851;23;20660;-73
2023/03/11 02:18:09;;;;;;;17.47;10.10;;;15.00;93.00;;;;;;6057137;23;20246;-73
2023/03/11 02:20:47;;;;;;;17.13;9.73;;;15.00;93.00;;;;;;6061101;23;20231;-73
2023/03/11 02:23:17;;;;;;;22.03;10.93;;;15.00;93.00;;;;;;6064070;23;20166;-73
2023/03/11 02:25:52;;;;;;;19.50;11.13;;;15.00;92.90;;;;;;6063595;23;20171;-73
2023/03/11 02:28:23;;;;;;;20.57;12.03;;;15.10;92.90;;;;;;6062885;23;20221;-72
2023/03/11 02:30:53;;;;;;;20.13;12.23;;;15.10;92.90;;;;;;6062345;23;20273;-73
2023/03/11 02:33:23;;;;;;;21.67;10.90;;;15.10;93.00;;;;;;6064085;23;20202;-73
2023/03/11 02:35:51;;;;;;;17.93;11.40;;;15.10;92.90;;;;;;6063485;23;20163;-73
2023/03/11 02:38:20;;;;;;;22.70;11.53;;;15.10;92.80;;;;;;6063415;23;20202;-73
2023/03/11 02:40:52;;;;;;;19.07;11.70;;;15.10;92.70;;;;;;6056222;23;20830;-76
2023/03/11 02:43:27;;;;;;;23.90;11.47;;;15.10;92.60;;;;;;6061749;23;20610;-73
2023/03/11 02:45:57;;;;;;;20.40;11.43;;;15.10;92.60;;;;;;6057825;23;20640;-76
2023/03/11 02:48:26;;;;;;;24.90;11.57;;;15.00;92.50;;;;;;6055582;23;20245;-74
2023/03/11 02:50:54;;;;;;;18.43;10.57;;;15.10;92.50;;;;;;6063766;23;20182;-74
2023/03/11 02:53:22;;;;;;;21.77;11.93;;;15.00;92.40;;;;;;6062804;23;20518;-73
2023/03/11 02:55:51;;;;;;;22.33;12.53;;;15.00;92.40;;;;;;6064098;23;20193;-74
2023/03/11 02:58:19;;;;;;;20.33;11.90;;;15.00;92.50;;;;;;6063243;23;20249;-73
2023/03/11 03:00:49;;;;;;;17.43;10.53;;;15.00;92.50;;;;;;6063419;23;20174;-73
2023/03/11 03:03:17;;;;;;;19.67;10.83;;;15.00;92.50;;;;;;6061722;23;20174;-73
2023/03/11 03:05:45;;;;;;;23.27;12.57;;;15.00;92.60;;;;;;6057959;23;20170;-73
2023/03/11 03:08:14;;;;;;;24.70;13.13;;;15.00;92.60;;;;;;6059466;23;20182;-73
2023/03/11 03:10:42;;;;;;;19.50;11.23;;;14.90;92.60;;;;;;6062445;23;20171;-74
2023/03/11 03:13:11;;;;;;;20.27;11.97;;;14.90;92.80;;;;;;6057029;23;20202;-75
2023/03/11 03:15:39;;;;;;;21.10;11.40;;;14.90;92.90;;;;;;6060045;23;20625;-73
2023/03/11 03:18:09;;;;;;;18.13;11.53;;;14.90;93.00;;;;;;6062285;23;20178;-73
2023/03/11 03:20:37;;;;;;;21.37;11.50;;;14.90;93.00;;;;;;6062534;23;20175;-73
2023/03/11 03:23:05;;;;;;;22.73;11.40;;;14.90;93.00;;;;;;6063103;23;20182;-73
2023/03/11 03:25:34;;;;;;;17.57;11.13;;;14.90;93.00;;;;;;6062781;23;20170;-74
2023/03/11 03:28:02;;;;;;;20.10;10.13;;;14.90;93.00;;;;;;6063633;23;20174;-73
2023/03/11 03:30:30;;;;;;;19.90;11.37;;;14.90;93.00;;;;;;6063443;23;20754;-74
2023/03/11 03:32:59;;;;;;;17.03;10.87;;;14.90;93.00;;;;;;6063164;23;20195;-73
2023/03/11 03:35:28;;;;;;;18.20;11.17;;;14.90;92.90;;;;;;6060649;23;20253;-73
2023/03/11 03:37:57;;;;;;;18.67;11.10;;;14.90;92.90;;;;;;6061699;23;20457;-73
2023/03/11 03:40:26;;;;;;;19.83;10.93;;;15.00;92.90;;;;;;6062848;23;20202;-73
2023/03/11 03:42:54;;;;;;;21.27;11.33;;;15.00;92.90;;;;;;6062727;23;20655;-73
2023/03/11 03:45:22;;;;;;;19.50;11.27;;;15.00;92.90;;;;;;6063250;23;20179;-73
2023/03/11 03:47:51;;;;;;;15.60;10.63;;;15.00;92.80;;;;;;6062716;23;20214;-73
2023/03/11 03:50:19;;;;;;;19.43;12.03;;;15.00;92.80;;;;;;6063852;23;20175;-73
2023/03/11 03:52:49;;;;;;;16.37;10.63;;;15.00;92.80;;;;;;6064896;23;20174;-73
2023/03/11 03:55:17;;;;;;;18.33;11.10;;;15.00;92.80;;;;;;6062030;23;20174;-73
2023/03/11 03:57:45;;;;;;;21.50;11.60;;;15.00;92.70;;;;;;6061227;23;20213;-73
2023/03/11 04:00:15;;;;;;;18.63;11.20;;;15.00;92.70;;;;;;6064178;23;20171;-73
2023/03/11 04:02:43;;;;;;;21.00;12.67;;;15.00;92.70;;;;;;6064078;23;20624;-73
2023/03/11 04:05:13;;;;;;;20.70;12.93;;;15.00;92.70;;;;;;6064838;23;20181;-73
2023/03/11 04:07:41;;;;;;;17.87;11.53;;;15.10;92.70;;;;;;6063520;23;20221;-73
2023/03/11 04:10:13;;;;;;;19.47;11.00;;;15.00;92.70;;;;;;6064882;23;20806;-73
2023/03/11 04:12:42;;;;;;;21.03;11.57;;;15.10;92.70;;;;;;6064422;23;20212;-73
2023/03/11 04:15:10;;;;;;;19.63;11.47;;;15.00;92.70;;;;;;6063994;23;20220;-73
2023/03/11 04:17:39;;;;;;;19.10;11.27;;;15.00;92.70;;;;;;6063316;23;20201;-73
2023/03/11 04:20:09;;;;;;;19.00;11.63;;;15.00;92.80;;;;;;6061542;23;20189;-73
2023/03/11 04:22:38;;;;;;;19.73;12.47;;;15.00;92.80;;;;;;6063791;23;20163;-73
2023/03/11 04:25:07;;;;;;;19.30;11.60;;;15.00;92.80;;;;;;6064973;23;20633;-73
2023/03/11 04:27:41;;;;;;;21.80;11.80;;;15.00;92.80;;;;;;6064915;23;20175;-73
2023/03/11 04:30:11;;;;;;;19.97;12.30;;;15.00;92.80;;;;;;6065222;23;20158;-73
2023/03/11 04:32:39;;;;;;;20.23;11.97;;;15.00;92.80;;;;;;6066156;23;20175;-73
2023/03/11 04:35:08;;;;;;;20.37;11.07;;;15.00;92.80;;;;;;6065054;23;20198;-73
2023/03/11 04:37:36;;;;;;;19.63;11.53;;;15.00;92.80;;;;;;6065440;23;20632;-73
2023/03/11 04:40:05;;;;;;;20.73;12.13;;;15.00;92.90;;;;;;6064123;23;20174;-73
2023/03/11 04:42:34;;;;;;;20.13;12.10;;;15.00;93.00;;;;;;6066162;23;20225;-73
2023/03/11 04:45:04;;;;;;;20.40;11.93;;;15.00;93.00;;;;;;6066166;23;20235;-73
2023/03/11 04:47:32;;;;;;;21.40;12.33;;;15.00;93.10;;;;;;6064682;23;20174;-72
2023/03/11 04:50:00;;;;;;;22.67;11.73;;;15.00;93.30;;;;;;6063317;23;20624;-72
2023/03/11 04:52:29;;;;;;;23.33;12.40;;;14.90;93.50;;;;;;6064829;23;20234;-72
2023/03/11 04:54:57;;;;;;;21.20;11.33;;;14.90;93.80;;;;;;6065885;23;20198;-72
2023/03/11 04:57:25;;;;;;;22.37;11.17;;;14.90;94.00;;;;;;6064263;23;20584;-73
2023/03/11 04:59:54;;;;;;;21.23;11.67;;;14.80;93.90;;;;;;6061771;23;20170;-72
2023/03/11 05:02:23;;;;;;;19.50;11.17;;;14.80;93.90;;;;;;6062887;23;20174;-73
2023/03/11 05:04:52;;;;;;;17.93;10.90;;;14.80;94.10;;;;;;6066135;23;20179;-73
2023/03/11 05:07:20;;;;;;;21.63;10.70;;;14.80;94.40;;;;;;6063516;23;20174;-72
2023/03/11 05:09:48;;;;;;;14.03;8.70;;;14.80;94.30;;;;;;6061959;23;20233;-72
2023/03/11 05:12:17;;;;;;;15.33;8.67;;;14.80;94.50;;;;;;6063586;23;20174;-73
2023/03/11 05:14:45;;;;;;;16.87;8.97;;;14.70;94.80;;;;;;6061631;23;20202;-74
2023/03/11 05:17:13;;;;;;;16.17;8.47;;;14.80;94.70;;;;;;6062425;23;20174;-73
2023/03/11 05:19:43;;;;;;;14.90;8.13;;;14.70;94.90;;;;;;6061299;23;20182;-72
2023/03/11 05:22:12;;;;;;;10.90;7.37;;;14.70;94.90;;;;;;6060539;23;20182;-73
2023/03/11 05:24:40;;;;;;;13.07;8.07;;;14.70;94.80;;;;;;6060317;23;20175;-72
2023/03/11 05:27:09;;;;;;;11.43;7.13;;;14.70;94.90;;;;;;6063832;23;20175;-73
2023/03/11 05:29:37;;;;;;;13.63;8.57;;;14.70;94.90;;;;;;6063295;23;20621;-74
2023/03/11 05:32:06;;;;;;;13.97;8.60;;;14.60;95.30;;;;;;6061928;23;20506;-73
2023/03/11 05:34:34;;;;;;;17.90;9.00;;;14.60;95.40;;;;;;6062720;23;20198;-73
2023/03/11 05:37:04;;;;;;;13.43;8.37;;;14.50;95.60;;;;;;6064440;23;20225;-73
2023/03/11 05:39:32;;;;;;;14.00;9.43;;;14.50;95.50;;;;;;6062070;23;20182;-73
2023/03/11 05:42:01;;;;;;;14.40;9.13;;;14.50;95.40;;;;;;6062708;23;20183;-73
2023/03/11 05:44:29;;;;;;;13.37;7.87;;;14.50;95.40;;;;;;6060760;23;20487;-75
2023/03/11 05:46:57;;;;;;;11.90;7.50;;;14.50;95.80;;;;;;6059254;23;20636;-73
2023/03/11 05:49:26;;;;;;;15.37;7.87;;;14.50;95.90;;;;;;6063019;23;20197;-74
2023/03/11 05:51:55;;;;;;;13.17;8.20;;;14.50;96.20;;;;;;6060575;23;20203;-74
2023/03/11 05:54:27;;;;;;;13.90;8.73;;;14.50;96.20;;;;;;6063833;23;20202;-73
2023/03/11 05:56:55;;;;;;;13.03;8.47;;;14.50;96.30;;;;;;6062846;23;20202;-74
2023/03/11 05:59:24;;;;;;;15.33;8.30;;;14.50;96.60;;;;;;6064528;23;20636;-74
2023/03/11 06:01:52;;;;;;;13.20;7.93;;;14.60;96.80;;;;;;6063655;23;20185;-74
2023/03/11 06:04:21;;;;;;;11.73;7.67;;;14.60;96.80;;;;;;6065991;23;20178;-74
2023/03/11 06:06:49;;;;;;;14.43;7.40;;;14.60;96.70;;;;;;6064917;23;20170;-74
2023/03/11 06:09:18;;;;;;;12.07;7.73;;;14.60;97.10;;;;;;6065751;23;20175;-73
2023/03/11 06:11:47;;;;;;;13.17;7.27;;;14.60;97.20;;;;;;6062448;23;20560;-74
2023/03/11 06:14:16;;;;;;;11.50;7.20;;;14.60;97.20;;;;;;6062695;23;20257;-76
2023/03/11 06:16:44;;;;;;;9.37;5.87;;;14.60;97.30;;;;;;6061429;23;20635;-73
2023/03/11 06:19:13;;;;;;;10.90;5.50;;;14.60;97.60;;;;;;6063064;23;20655;-72
2023/03/11 06:21:41;;;;;;;8.23;5.33;;;14.70;97.60;;;;;;6065635;23;20269;-73
2023/03/11 06:24:09;;;;;;;7.47;5.00;;;14.60;97.80;;;;;;6064498;23;20712;-73
2023/03/11 06:26:38;;;;;;;7.00;4.80;;;14.70;97.80;;;;;;6065425;23;20171;-73
2023/03/11 06:29:11;;;;;;;8.23;4.77;;;14.70;97.90;;;;;;6065462;23;20202;-73
2023/03/11 06:31:40;;;;;;;9.33;4.70;;;14.70;97.80;;;;;;6065288;23;20170;-72
2023/03/11 06:34:10;;;;;;;8.93;4.80;;;14.70;98.10;;;;;;6063839;23;20199;-72
2023/03/11 06:36:38;;;;;;;7.57;4.57;;;14.70;98.10;;;;;;6063312;23;20254;-72
2023/03/11 06:39:07;;;;;;;10.10;4.57;;;14.70;98.10;;;;;;6061987;23;20206;-73
2023/03/11 06:41:36;;;;;;;5.97;3.77;;;14.70;98.20;;;;;;6061640;23;20175;-74
2023/03/11 06:44:04;;;;;;;8.67;4.43;;;14.80;98.20;;;;;;6065076;23;20182;-73
2023/03/11 06:46:34;;;;;;;6.97;4.33;;;14.80;98.40;;;;;;6062237;23;20174;-73
2023/03/11 06:49:03;;;;;;;6.30;4.00;;;14.80;98.20;;;;;;6063225;23;20233;-71
2023/03/11 06:51:31;;;;;;;6.53;4.03;;;14.80;98.20;;;;;;6062981;23;20182;-72
2023/03/11 06:54:00;;;;;;;5.93;3.63;;;14.70;98.00;;;;;;6059566;23;20234;-73
2023/03/11 06:56:28;;;;;;;6.43;4.10;;;14.80;97.90;;;;;;6061219;23;20202;-73
2023/03/11 06:58:56;;;;;;;6.70;3.50;;;14.80;97.80;;;;;;6060406;23;20166;-73
2023/03/11 07:01:26;;;;;;;7.60;4.40;;;14.80;97.80;;;;;;6059347;23;20256;-73
2023/03/11 07:03:56;;;;;;;6.60;4.23;;;14.80;97.90;;;;;;6062749;23;20530;-73
2023/03/11 07:06:27;;;;;;;6.23;4.27;;;14.80;97.60;;;;;;6063094;23;20178;-72
2023/03/11 07:08:56;;;;;;;6.93;4.10;;;14.80;97.60;;;;;;6061847;23;20604;-74
2023/03/11 07:11:26;;;;;;;8.77;4.30;;;14.80;97.60;;;;;;6058784;23;20186;-74
2023/03/11 07:13:57;;;;;;;7.83;4.10;;;14.90;97.50;;;;;;6063417;23;20167;-74
2023/03/11 07:16:27;;;;;;;7.47;4.33;;;14.80;97.40;;;;;;6062759;23;20537;-72
2023/03/11 07:18:59;;;;;;;7.47;4.40;;;14.90;97.30;;;;;;6060735;23;20705;-73
2023/03/11 07:21:30;;;;;;;6.70;4.20;;;14.80;97.40;;;;;;6064806;23;20237;-72
2023/03/11 07:24:00;;;;;;;6.88;4.60;;;14.80;97.40;;;;;;6063157;23;20921;-73
2023/03/11 07:26:30;;;;;;;6.77;4.37;;;14.90;97.60;;;;;;6060745;23;20624;-73
2023/03/11 07:28:58;;;;;;;7.03;4.07;;;15.00;97.50;;;;;;6065040;23;20178;-72
2023/03/11 07:31:29;;;;;;;5.40;3.23;;;15.00;97.60;;;;;;6062779;23;20632;-75
2023/03/11 07:33:59;;;;;;;9.07;4.03;;;15.00;97.50;;;;;;6063206;23;20166;-72
2023/03/11 07:36:29;;;;;;;7.90;4.20;;;15.00;97.30;;;;;;6061015;23;20245;-72
2023/03/11 07:38:58;;;;;;;6.80;4.40;;;15.00;97.20;;;;;;6059652;23;20174;-74
2023/03/11 07:41:30;;;;;;;6.30;3.87;;;15.10;97.20;;;;;;6064806;23;20612;-72
2023/03/11 07:44:00;;;;;;;7.47;4.23;;;15.10;96.80;;;;;;6067128;23;20174;-73
2023/03/11 07:46:29;;;;;;;7.17;4.57;;;15.10;96.80;;;;;;6066509;23;20179;-72
2023/03/11 07:49:02;;;;;;;9.00;5.20;;;15.00;96.70;;;;;;6065172;23;20237;-74
2023/03/11 07:51:33;;;;;;;11.03;6.20;;;15.10;96.80;;;;;;6065724;23;20166;-74
2023/03/11 07:54:02;;;;;;;9.30;5.73;;;15.10;96.70;;;;;;6065474;23;20163;-74
2023/03/11 07:56:32;;;;;;;8.93;4.70;;;15.20;96.70;;;;;;6065359;23;20206;-73
2023/03/11 07:59:02;;;;;;;7.63;5.20;;;15.20;96.70;;;;;;6063989;23;20178;-73
2023/03/11 08:01:35;;;;;;;7.37;4.10;;;15.30;96.60;;;;;;6063080;23;20548;-74
2023/03/11 08:04:06;;;;;;;6.83;4.50;;;15.30;96.50;;;;;;6065525;23;20245;-72
2023/03/11 08:06:36;;;;;;;9.77;4.93;;;15.30;96.20;;;;;;6065711;23;20681;-72
2023/03/11 08:09:08;;;;;;;9.40;4.77;;;15.30;95.80;;;;;;6059632;23;20178;-74
2023/03/11 08:11:37;;;;;;;6.50;4.43;;;15.30;95.40;;;;;;6065260;23;20214;-73
2023/03/11 08:14:06;;;;;;;5.57;4.10;;;15.30;95.20;;;;;;6062146;23;20553;-74
2023/03/11 08:16:34;;;;;;;8.17;5.17;;;15.20;95.10;;;;;;6065328;23;20258;-75
2023/03/11 08:19:04;;;;;;;8.63;6.27;;;15.20;94.90;;;;;;6062394;23;20237;-73
2023/03/11 08:21:32;;;;;;;8.80;6.10;;;15.20;94.80;;;;;;6063666;23;20174;-73
2023/03/11 08:24:02;;;;;;;12.20;7.07;;;15.10;95.00;;;;;;6062882;23;20175;-73
2023/03/11 08:26:34;;;;;;;10.30;5.90;;;15.10;95.10;;;;;;6063428;23;20246;-72
2023/03/11 08:29:02;;;;;;;10.77;6.63;;;15.10;95.10;;;;;;6061762;23;20175;-71
2023/03/11 08:31:32;;;;;;;8.47;6.03;;;15.10;95.20;;;;;;6066332;23;20171;-71
2023/03/11 08:34:03;;;;;;;8.33;5.47;;;15.10;95.20;;;;;;6064520;23;20684;-72
2023/03/11 08:36:33;;;;;;;8.83;5.80;;;15.10;95.30;;;;;;6064544;23;20234;-72
2023/03/11 08:39:02;;;;;;;9.40;6.23;;;15.10;95.40;;;;;;6064208;23;20209;-72
2023/03/11 08:41:30;;;;;;;11.00;7.10;;;15.10;95.50;;;;;;6065408;23;20183;-72
2023/03/11 08:43:59;;;;;;;10.73;7.00;;;15.10;95.50;;;;;;6065406;23;20178;-74
2023/03/11 08:46:29;;;;;;;10.63;6.33;;;15.10;95.60;;;;;;6063244;23;20175;-72
2023/03/11 08:48:59;;;;;;;14.17;7.73;;;15.30;95.70;;;;;;6066473;23;20612;-75
2023/03/11 08:51:29;;;;;;;12.20;8.90;;;15.30;95.80;;;;;;6063366;23;20166;-73
2023/03/11 08:53:59;;;;;;;14.13;8.20;;;15.40;95.50;;;;;;6062886;23;20229;-72
2023/03/11 08:56:28;;;;;;;15.47;9.57;;;15.50;95.50;;;;;;6064214;23;20285;-72
2023/03/11 08:58:57;;;;;;;15.73;10.30;;;15.50;95.40;;;;;;6065579;23;20691;-73
2023/03/11 09:01:25;;;;;;;19.17;10.63;;;15.60;95.50;;;;;;6065468;23;20793;-72
2023/03/11 09:03:53;;;;;;;23.20;13.90;;;15.60;95.40;;;;;;6065630;23;20175;-73
2023/03/11 09:06:23;;;;;;;23.67;15.13;;;15.70;95.00;;;;;;6064121;23;20245;-72
2023/03/11 09:08:51;;;;;;;22.53;14.30;;;15.80;94.90;;;;;;6065730;23;20230;-73
2023/03/11 09:11:21;;;;;;;20.43;12.97;;;15.80;94.60;;;;;;6062676;23;20727;-72
2023/03/11 09:13:50;;;;;;;22.13;13.90;;;15.90;94.50;;;;;;6060532;23;20506;-73
2023/03/11 09:16:21;;;;;;;20.37;13.07;;;16.00;94.40;;;;;;6064625;23;20206;-72
2023/03/11 09:18:50;;;;;;;18.20;11.87;;;16.00;94.30;;;;;;6064794;23;20166;-72
2023/03/11 09:21:19;;;;;;;15.87;10.83;;;16.10;93.80;;;;;;6065002;23;20179;-73
2023/03/11 09:23:48;;;;;;;16.30;10.50;;;16.20;93.60;;;;;;6065051;23;20174;-73
2023/03/11 09:26:16;;;;;;;15.03;10.23;;;16.10;93.40;;;;;;6065100;23;20179;-72
2023/03/11 09:28:47;;;;;;;15.47;11.07;;;16.10;93.30;;;;;;6065008;23;20175;-72
2023/03/11 09:31:16;;;;;;;15.90;10.93;;;16.20;93.40;;;;;;6066198;23;20165;-73
2023/03/11 09:33:46;;;;;;;15.97;11.57;;;16.30;93.30;;;;;;6061167;23;20174;-73
2023/03/11 09:36:16;;;;;;;16.63;12.63;;;16.30;93.10;;;;;;6060684;23;20191;-74
2023/03/11 09:38:45;;;;;;;15.60;11.60;;;16.30;92.90;;;;;;6062265;23;20549;-73
2023/03/11 09:41:23;;;;;;;15.87;11.77;;;16.30;92.90;;;;;;6063031;23;20171;-73
2023/03/11 09:44:07;;;;;;;17.00;11.57;;;16.50;92.70;;;;;;6064249;23;20162;-73
2023/03/11 09:47:16;;;;;;;16.00;11.40;;;16.40;92.50;;;;;;6063196;23;20174;-73
2023/03/11 09:50:04;;;;;;;18.50;11.80;;;16.40;92.50;;;;;;6062122;23;20567;-72
2023/03/11 09:52:42;;;;;;;15.77;11.70;;;16.50;92.80;;;;;;6058718;23;20166;-72
2023/03/11 09:55:30;;;;;;;15.10;11.50;;;16.50;92.80;;;;;;6062895;23;20539;-72
2023/03/11 09:58:02;;;;;;;15.27;10.83;;;16.50;92.70;;;;;;6061763;23;20206;-73
2023/03/11 10:00:32;;;;;;;15.17;11.40;;;16.60;92.70;;;;;;6061422;23;20167;-73
2023/03/11 10:03:03;;;;;;;14.60;10.60;;;16.60;92.60;;;;;;6063622;23;20290;-73
2023/03/11 10:05:32;;;;;;;14.83;10.73;;;16.50;92.30;;;;;;6062651;23;20608;-73
2023/03/11 10:08:09;;;;;;;16.03;11.20;;;16.60;92.30;;;;;;6062551;23;20549;-73
2023/03/11 10:10:43;;;;;;;15.97;11.60;;;16.60;92.40;;;;;;6060326;23;20166;-73
2023/03/11 10:13:18;;;;;;;17.40;11.80;;;16.70;92.40;;;;;;6061578;23;20221;-73
2023/03/11 10:15:52;;;;;;;17.17;11.80;;;16.70;92.30;;;;;;6061187;23;20766;-73
2023/03/11 10:18:46;;;;;;;17.73;12.13;;;16.70;92.30;;;;;;6059424;23;20197;-72
2023/03/11 10:21:24;;;;;;;18.17;12.40;;;16.60;92.40;;;;;;6060726;23;20171;-73
2023/03/11 10:24:13;;;;;;;17.17;12.47;;;16.70;92.50;;;;;;6062267;23;20660;-75
2023/03/11 10:26:45;;;;;;;17.20;12.57;;;16.60;92.40;;;;;;6063651;23;20171;-73
2023/03/11 10:29:19;;;;;;;17.97;12.83;;;16.60;92.40;;;;;;6058185;23;20163;-74
2023/03/11 10:31:53;;;;;;;17.30;13.13;;;16.60;92.40;;;;;;6063567;23;20162;-74
2023/03/11 10:34:28;;;;;;;18.87;12.57;;;16.50;91.50;;;;;;6063841;23;20170;-74
2023/03/11 10:37:02;;;;;;;16.73;12.33;;;16.60;91.40;;;;;;6064444;23;20189;-73
2023/03/11 10:39:32;;;;;;;18.00;12.80;;;16.50;91.00;;;;;;6060595;23;20229;-73
2023/03/11 10:42:04;;;;;;;17.90;13.07;;;16.50;91.00;;;;;;6057710;23;20158;-73
2023/03/11 10:44:34;;;;;;;19.87;13.13;;;16.60;90.90;;;;;;6061409;23;20162;-73
2023/03/11 10:47:05;;;;;;;16.00;12.20;;;16.60;90.80;;;;;;6062888;23;20163;-72
2023/03/11 10:49:33;;;;;;;15.07;11.73;;;16.50;90.70;;;;;;6062218;23;20186;-73
2023/03/11 10:52:04;;;;;;;14.70;11.20;;;16.60;90.80;;;;;;6061828;23;20181;-73
2023/03/11 10:54:36;;;;;;;15.20;11.33;;;16.60;90.90;;;;;;6061621;23;20163;-73
2023/03/11 10:57:18;;;;;;;18.20;11.37;;;16.60;90.80;;;;;;6063404;23;20202;-73
2023/03/11 10:59:49;;;;;;;13.57;10.20;;;16.70;90.70;;;;;;6063764;23;20222;-74
2023/03/11 11:02:26;;;;;;;11.87;9.50;;;16.80;90.20;;;;;;6065725;23;20540;-74
2023/03/11 11:05:27;;;;;;;12.20;10.33;;;16.90;90.20;;;;;;6062387;23;20172;-75
2023/03/11 11:08:05;;;;;;;13.47;9.43;;;17.00;89.40;;;;;;6066535;23;20670;-74
2023/03/11 11:10:34;;;;;;;11.47;9.53;;;17.20;89.40;;;;;;6065741;23;20159;-74
2023/03/11 11:13:18;;;;;;;14.63;10.03;;;17.40;88.70;;;;;;6064697;23;20547;-74
2023/03/11 11:15:56;;;;;;;14.57;8.87;;;17.70;89.10;;;;;;6064571;23;20218;-74
2023/03/11 11:18:28;;;;;;;10.93;8.13;;;17.80;87.20;;;;;;6065094;23;20190;-75
2023/03/11 11:21:01;;;;;;;9.73;8.13;;;17.90;85.60;;;;;;6063305;23;20592;-76
2023/03/11 11:23:40;;;;;;;12.02;9.55;;;18.00;84.50;;;;;;6058964;23;20454;-75
2023/03/11 11:26:18;;;;;;;9.87;8.83;;;18.10;84.40;;;;;;6060319;23;20230;-74
2023/03/11 11:28:46;;;;;;;10.87;8.37;;;18.20;83.30;;;;;;6063550;23;20608;-75
2023/03/11 11:31:24;;;;;;;9.88;7.30;;;18.20;83.00;;;;;;6062489;23;20182;-74
2023/03/11 11:33:55;;;;;;;8.47;6.97;;;18.20;82.50;;;;;;6064176;23;20182;-74
2023/03/11 11:36:27;;;;;;;8.27;6.90;;;18.20;81.60;;;;;;6065624;23;20159;-74
2023/03/11 11:38:56;;;;;;;9.40;7.13;;;18.10;82.10;;;;;;6065546;23;20218;-75
2023/03/11 11:41:28;;;;;;;9.80;7.20;;;18.00;82.30;;;;;;6064876;23;20254;-74
2023/03/11 11:44:01;;;;;;;9.97;7.67;;;18.10;82.80;;;;;;6063096;23;20229;-74
2023/03/11 11:46:35;;;;;;;9.50;6.70;;;18.20;82.70;;;;;;6064845;23;20163;-74
2023/03/11 11:49:16;;;;;;;8.13;7.20;;;18.20;82.70;;;;;;6064445;23;20190;-74
2023/03/11 11:51:50;;;;;;;12.47;6.73;;;18.30;82.80;;;;;;6064037;23;20233;-74
2023/03/11 11:54:25;;;;;;;10.07;7.07;;;18.40;82.80;;;;;;6062181;23;20513;-74
2023/03/11 11:56:55;;;;;;;7.83;6.93;;;18.40;81.20;;;;;;6062998;23;20261;-74
2023/03/11 11:59:25;;;;;;;8.07;6.97;;;18.40;81.20;;;;;;6064128;23;20261;-74
2023/03/11 12:02:07;;;;;;;9.00;7.10;;;18.40;81.50;;;;;;6064803;23;20524;-74
2023/03/11 12:04:50;;;;;;;8.37;7.13;;;18.40;80.80;;;;;;6064417;23;20167;-75
2023/03/11 12:07:29;;;;;;;8.93;6.70;;;18.30;80.60;;;;;;6064253;23;20612;-73
2023/03/11 12:10:12;;;;;;;7.37;6.43;;;18.30;81.40;;;;;;6064733;23;20163;-75
2023/03/11 12:13:22;;;;;;;8.47;7.37;;;18.30;81.50;;;;;;6063726;23;20245;-74
2023/03/11 12:15:58;;;;;;;8.50;6.73;;;18.30;81.50;;;;;;6064731;23;20616;-74
2023/03/11 12:18:34;;;;;;;8.10;6.80;;;18.40;81.40;;;;;;6062058;23;20582;-76
2023/03/11 12:21:22;;;;;;;10.53;6.77;;;18.50;80.30;;;;;;6063299;23;20173;-74
2023/03/11 12:24:04;;;;;;;8.07;6.77;;;18.50;80.20;;;;;;6065137;23;20676;-73
2023/03/11 12:26:36;;;;;;;8.27;5.97;;;18.70;80.20;;;;;;6059193;23;20226;-76
2023/03/11 12:29:12;;;;;;;8.17;6.60;;;18.70;80.10;;;;;;6064534;23;20500;-73
2023/03/11 12:31:44;;;;;;;8.05;6.70;;;18.80;80.50;;;;;;6066481;23;20165;-74
2023/03/11 12:34:18;;;;;;;6.72;5.95;;;18.80;79.80;;;;;;6066016;23;20234;-74
2023/03/11 12:36:49;;;;;;;6.83;6.00;;;18.80;79.20;;;;;;6063254;23;20174;-75
2023/03/11 12:39:23;;;;;;;8.48;5.78;;;18.90;79.80;;;;;;6063072;23;20187;-76
2023/03/11 12:42:16;;;;;;;6.80;6.10;;;19.00;79.90;;;;;;6065898;23;20161;-74
2023/03/11 12:44:46;;;;;;;16.67;6.57;;;18.90;78.60;;;;;;6066333;23;20162;-75
2023/03/11 12:47:23;;;;;;;6.47;5.73;;;18.90;78.80;;;;;;6065144;23;20175;-74
2023/03/11 12:49:54;;;;;;;7.67;5.90;;;18.90;78.90;;;;;;6062016;23;20162;-74
2023/03/11 12:52:33;;;;;;;7.80;6.47;;;18.90;78.80;;;;;;6063921;23;20159;-74
2023/03/11 12:55:37;;;;;;;7.33;6.17;;;19.00;79.20;;;;;;6062269;23;20600;-75